Terminal Aerodrome Forecast
Issued by NWS

Home | Current Version | Previous Version | Text Only | Print | Product List | Glossary On
Versions: 1 2 3 4 5 6 7 8 9 10 11 12 13 14 15 16 17 18 19 20 21 22 23 24 25 26 27 28 29 30 31
573
FTUS41 KOKX 281531 AAC
TAFHPN
TAF AMD
KHPN 281531Z 2816/0112 11005KT P6SM FEW010 SCT035
     FM282200 12005KT P6SM BKN020 OVC040
     FM010000 13005KT 3SM -RA BR BKN006 OVC010
     FM010300 14005KT 1SM -RA BR OVC004
     FM010700 15004KT 1SM -RA BR OVC004
     FM010900 19005KT 3SM BR OVC004 WS020/24040KT=

USA.gov is the U.S. government's official web portal to all federal, state and local government web resources and services.